Time;durP1;ratioP1;P1;durP2;ratioP2;P2;SDS_P1;SDS_P2;PMS_P1;PMS_P2;Temp;Humidity;BMP_temperature;BMP_pressure;BME280_temperature;BME280_humidity;BME280_pressure;Samples;Min_cycle;Max_cycle;Signal;HPM_P1;HPM_P2
2022/08/03 00:00:33;;;;;;;11.15;10.05;;;28.30;51.80;;;;;;4566344;56;502278;-32
2022/08/03 00:05:35;;;;;;;12.02;10.77;;;28.30;51.80;;;;;;4562990;56;510946;-29
2022/08/03 00:10:37;;;;;;;12.00;10.70;;;28.30;51.80;;;;;;4548669;60;510953;-33
2022/08/03 00:15:40;;;;;;;12.23;10.93;;;28.30;51.80;;;;;;4549277;60;510961;-31
2022/08/03 00:20:42;;;;;;;12.63;11.32;;;28.30;51.90;;;;;;4626812;56;510941;-31
2022/08/03 00:25:44;;;;;;;11.27;10.13;;;28.30;51.90;;;;;;4597621;56;502300;-29
2022/08/03 00:30:46;;;;;;;11.57;10.48;;;28.30;51.90;;;;;;4556610;56;510639;-30
2022/08/03 00:35:47;;;;;;;12.18;10.93;;;28.30;52.10;;;;;;4588176;56;510646;-31
2022/08/03 00:40:49;;;;;;;11.80;10.60;;;28.30;52.10;;;;;;4806245;56;510930;-30
2022/08/03 00:45:51;;;;;;;11.10;10.00;;;28.30;52.00;;;;;;4583450;56;502342;-34
2022/08/03 00:50:54;;;;;;;10.68;9.68;;;28.30;52.00;;;;;;4587232;56;496088;-32
2022/08/03 00:55:56;;;;;;;11.43;10.30;;;28.30;52.00;;;;;;4557398;56;502333;-30
2022/08/03 01:00:58;;;;;;;10.55;9.55;;;28.30;52.00;;;;;;4664504;56;496407;-31
2022/08/03 01:09:07;;;;;;;11.20;9.88;;;28.20;52.00;;;;;;4578550;56;502278;-31
2022/08/03 01:14:27;;;;;;;10.88;9.38;;;28.30;52.20;;;;;;4579915;56;496343;-31
2022/08/03 01:19:58;;;;;;;10.90;9.50;;;28.20;52.00;;;;;;4695255;56;496574;-30
2022/08/03 01:25:24;;;;;;;10.43;9.32;;;28.30;52.10;;;;;;4708524;56;496487;-31
2022/08/03 01:30:33;;;;;;;10.35;9.32;;;28.20;52.10;;;;;;4631487;56;496108;-30
2022/08/03 01:36:02;;;;;;;10.02;9.00;;;28.20;52.10;;;;;;4594907;56;496062;-33
2022/08/03 01:41:12;;;;;;;10.27;9.18;;;28.30;52.20;;;;;;4694313;56;496056;-32
2022/08/03 01:46:16;;;;;;;9.88;8.95;;;28.20;52.10;;;;;;4886212;56;496044;-32
2022/08/03 01:51:20;;;;;;;9.95;8.95;;;28.20;52.20;;;;;;4589553;56;496088;-31
2022/08/03 01:56:24;;;;;;;9.98;8.98;;;28.30;52.50;;;;;;4569487;56;496025;-30
2022/08/03 02:01:27;;;;;;;9.25;8.35;;;28.30;52.30;;;;;;4579287;56;490101;-29
2022/08/03 02:06:32;;;;;;;10.10;9.15;;;28.20;52.80;;;;;;4614866;56;496025;-33
2022/08/03 02:11:36;;;;;;;9.63;8.45;;;28.20;52.40;;;;;;4606470;56;489795;-32
2022/08/03 02:16:37;;;;;;;10.20;9.10;;;28.20;52.30;;;;;;4684049;56;496351;-30
2022/08/03 02:21:40;;;;;;;9.73;8.82;;;28.20;52.40;;;;;;4756376;56;490148;-31
2022/08/03 02:26:43;;;;;;;9.52;8.52;;;28.20;52.40;;;;;;4594022;56;489775;-30
2022/08/03 02:31:48;;;;;;;9.18;8.23;;;28.20;52.40;;;;;;4550890;60;489850;-30
2022/08/03 02:36:53;;;;;;;9.55;8.43;;;28.20;52.60;;;;;;4770860;56;489787;-30
2022/08/03 02:42:01;;;;;;;9.65;8.65;;;28.20;52.50;;;;;;4743904;56;489798;-31
2022/08/03 02:47:06;;;;;;;9.10;8.23;;;28.20;52.30;;;;;;4608069;56;489810;-31
2022/08/03 02:52:13;;;;;;;9.05;8.15;;;28.20;52.40;;;;;;4646081;56;200605;-30
2022/08/03 02:57:15;;;;;;;;;;;28.20;52.40;;;;;;4812689;56;114782;-28
2022/08/03 03:02:19;;;;;;;8.50;7.80;;;28.20;52.40;;;;;;4710300;56;490116;-31
2022/08/03 03:07:21;;;;;;;8.32;7.53;;;28.20;52.30;;;;;;4661975;56;489779;-30
2022/08/03 03:12:24;;;;;;;8.50;7.70;;;28.20;52.30;;;;;;4551089;60;489771;-30
2022/08/03 03:17:27;;;;;;;9.30;7.90;;;28.20;52.30;;;;;;4695807;56;489810;-29
2022/08/03 03:22:30;;;;;;;8.23;7.43;;;28.20;52.30;;;;;;4551642;60;489824;-29
2022/08/03 03:27:33;;;;;;;8.35;7.55;;;28.20;52.30;;;;;;4551484;60;489790;-30
2022/08/03 03:32:38;;;;;;;7.72;7.03;;;28.20;52.20;;;;;;4550771;57;489811;-29
2022/08/03 03:37:40;;;;;;;8.33;7.37;;;28.20;52.30;;;;;;4847197;56;200401;-29
2022/08/03 03:42:42;;;;;;;7.40;6.70;;;28.20;52.30;;;;;;4713223;56;490125;-28
2022/08/03 03:47:44;;;;;;;7.85;7.15;;;28.20;52.20;;;;;;4700368;56;489838;-28
2022/08/03 03:52:45;;;;;;;9.50;6.82;;;28.20;52.20;;;;;;4681058;56;492919;-30
2022/08/03 03:57:47;;;;;;;7.28;6.57;;;28.20;52.10;;;;;;4706229;56;489775;-31
2022/08/03 04:02:49;;;;;;;6.85;6.25;;;28.20;52.20;;;;;;4619404;56;487685;-29
2022/08/03 04:13:37;;;;;;;7.37;6.68;;;28.20;52.10;;;;;;4550937;56;490117;-33
2022/08/03 04:18:41;;;;;;;6.87;6.20;;;28.20;52.00;;;;;;4726996;56;487693;-32
2022/08/03 04:23:47;;;;;;;7.45;6.75;;;28.20;52.10;;;;;;4857553;56;489787;-32
2022/08/03 04:28:50;;;;;;;6.78;6.22;;;28.20;52.00;;;;;;4693632;56;483529;-31
2022/08/03 04:33:53;;;;;;;7.72;6.60;;;28.20;52.00;;;;;;4550191;60;489774;-31
2022/08/03 04:39:10;;;;;;;6.87;6.28;;;28.20;52.10;;;;;;4641195;56;487712;-31
2022/08/03 04:44:13;;;;;;;6.62;6.03;;;28.10;52.00;;;;;;4616030;56;479363;-32
2022/08/03 04:49:16;;;;;;;6.75;6.12;;;28.10;51.80;;;;;;4572264;56;483525;-30
2022/08/03 04:54:17;;;;;;;6.70;6.10;;;28.10;52.00;;;;;;4551022;60;479401;-30
2022/08/03 04:59:19;;;;;;;5.97;5.40;;;28.10;51.90;;;;;;4550244;60;498130;-31
2022/08/03 05:04:21;;;;;;;6.35;5.85;;;28.10;52.00;;;;;;4560074;56;479363;-32
2022/08/03 05:09:23;;;;;;;6.90;6.20;;;28.10;51.80;;;;;;4844954;56;487703;-30
2022/08/03 05:14:25;;;;;;;8.38;6.25;;;28.10;51.90;;;;;;4625179;56;490165;-31
2022/08/03 05:19:27;;;;;;;7.60;6.50;;;28.10;51.80;;;;;;4580681;56;489850;-30
2022/08/03 05:24:29;;;;;;;6.43;5.75;;;28.10;51.90;;;;;;4816835;56;498104;-31
2022/08/03 05:29:31;;;;;;;6.60;5.95;;;28.10;51.80;;;;;;4551443;60;479760;-33
2022/08/03 05:34:36;;;;;;;7.03;6.32;;;28.10;51.70;;;;;;4567645;56;488026;-33
2022/08/03 05:39:38;;;;;;;6.30;5.70;;;28.10;51.80;;;;;;4550604;60;498451;-32
2022/08/03 05:44:40;;;;;;;7.50;6.10;;;28.10;51.80;;;;;;4657409;56;489778;-29
2022/08/03 05:49:42;;;;;;;6.82;6.12;;;28.10;51.90;;;;;;4724819;56;487692;-29
2022/08/03 05:54:44;;;;;;;6.80;5.78;;;28.10;51.90;;;;;;4649235;56;479661;-30
2022/08/03 05:59:46;;;;;;;6.72;5.90;;;28.10;51.90;;;;;;4552681;60;479366;-30
2022/08/03 06:04:48;;;;;;;7.30;6.60;;;28.10;51.90;;;;;;4998797;56;490096;-30
2022/08/03 06:09:50;;;;;;;7.53;6.57;;;28.10;51.90;;;;;;4572457;56;489802;-29
2022/08/03 06:14:52;;;;;;;7.60;6.87;;;28.10;51.90;;;;;;4706799;56;489786;-31
2022/08/03 06:19:54;;;;;;;8.73;6.60;;;28.10;51.90;;;;;;4627762;56;490305;-29
2022/08/03 06:24:57;;;;;;;7.30;6.60;;;28.10;52.00;;;;;;4579219;56;490154;-30
2022/08/03 06:29:58;;;;;;;7.62;6.82;;;28.10;52.00;;;;;;4750569;56;489784;-30
2022/08/03 06:35:01;;;;;;;7.43;6.72;;;28.10;51.90;;;;;;4799630;56;490097;-28
2022/08/03 06:40:03;;;;;;;8.20;7.03;;;28.10;52.60;;;;;;5002831;56;490137;-30
2022/08/03 06:45:07;;;;;;;7.43;6.72;;;28.10;52.00;;;;;;4641606;56;489807;-30
2022/08/03 06:50:10;;;;;;;8.15;7.35;;;28.10;52.00;;;;;;4707801;56;489807;-30
2022/08/03 06:55:11;;;;;;;7.70;7.00;;;28.10;52.10;;;;;;4605947;56;489778;-29
2022/08/03 07:00:14;;;;;;;9.68;8.25;;;28.10;52.10;;;;;;4827845;56;489784;-27
2022/08/03 07:05:16;;;;;;;12.52;9.10;;;28.10;52.20;;;;;;4662807;56;496339;-33
2022/08/03 07:10:18;;;;;;;15.13;9.77;;;28.00;51.90;;;;;;4697282;56;507797;-28
2022/08/03 07:15:19;;;;;;;13.85;11.43;;;27.60;51.00;;;;;;4548727;60;510969;-28
2022/08/03 07:20:21;;;;;;;18.83;14.63;;;27.50;50.60;;;;;;4689892;56;510710;-26
2022/08/03 07:25:24;;;;;;;22.25;16.90;;;27.30;50.30;;;;;;4549632;56;501222;-25
2022/08/03 07:30:25;;;;;;;22.73;18.23;;;27.10;50.10;;;;;;4550160;60;502353;-27
2022/08/03 07:35:27;;;;;;;24.95;19.37;;;27.10;49.70;;;;;;4622364;56;502302;-31
2022/08/03 07:40:29;;;;;;;31.33;23.00;;;27.00;49.50;;;;;;4549498;60;506449;-27
2022/08/03 07:45:31;;;;;;;31.42;22.40;;;26.90;49.40;;;;;;4564412;56;506759;-29
2022/08/03 07:55:40;;;;;;;42.28;29.40;;;26.90;49.40;;;;;;4766027;54;27988;-33
2022/08/03 08:00:41;;;;;;;49.85;32.90;;;26.90;49.40;;;;;;4808268;55;21469;-27
2022/08/03 08:05:42;;;;;;;43.60;30.37;;;26.80;49.20;;;;;;4777171;55;21069;-27
2022/08/03 08:10:43;;;;;;;43.05;28.12;;;26.80;49.20;;;;;;4884502;55;23371;-32
2022/08/03 08:15:44;;;;;;;45.20;28.98;;;26.80;49.20;;;;;;4895097;55;21183;-30
2022/08/03 08:20:45;;;;;;;38.90;27.65;;;26.80;49.80;;;;;;4894375;55;21066;-26
2022/08/03 08:25:45;;;;;;;33.55;24.20;;;26.80;49.50;;;;;;4894546;55;21096;-27
2022/08/03 08:30:47;;;;;;;37.42;26.35;;;26.80;49.50;;;;;;4903425;55;21054;-27
2022/08/03 08:35:48;;;;;;;31.17;24.80;;;26.80;49.50;;;;;;4747305;58;21045;-25
2022/08/03 08:40:49;;;;;;;32.65;25.10;;;26.80;49.40;;;;;;4747259;58;21072;-25
2022/08/03 08:45:53;;;;;;;34.58;24.23;;;26.80;49.40;;;;;;4792443;55;21018;-28
2022/08/03 08:50:55;;;;;;;30.15;22.48;;;26.80;49.20;;;;;;4815909;55;21006;-28
2022/08/03 08:56:01;;;;;;;30.40;22.48;;;26.80;49.20;;;;;;4852230;55;21010;-26
2022/08/03 09:01:02;;;;;;;33.72;23.30;;;26.80;49.00;;;;;;4747951;58;20962;-29
2022/08/03 09:06:03;;;;;;;28.30;22.87;;;26.80;49.00;;;;;;4745855;58;21528;-26
2022/08/03 09:11:04;;;;;;;28.25;22.33;;;26.80;48.70;;;;;;4804548;55;21058;-29
2022/08/03 09:16:54;;;;;;;32.00;22.75;;;26.70;48.70;;;;;;4756814;55;21121;-30
2022/08/03 09:22:11;;;;;;;31.27;22.60;;;26.80;48.90;;;;;;4829012;55;21058;-27
2022/08/03 09:27:12;;;;;;;33.78;23.85;;;26.80;48.90;;;;;;4865952;55;21489;-31
2022/08/03 09:32:13;;;;;;;38.30;27.52;;;26.80;49.00;;;;;;4745177;59;21065;-28
2022/08/03 09:37:16;;;;;;;31.52;25.80;;;26.80;48.60;;;;;;4816033;55;21054;-27
2022/08/03 09:42:18;;;;;;;36.95;29.30;;;26.80;48.50;;;;;;4745232;59;21005;-28
2022/08/03 09:47:31;;;;;;;40.67;31.73;;;26.80;48.50;;;;;;4918427;55;21002;-29
2022/08/03 09:52:37;;;;;;;41.67;33.67;;;26.70;48.10;;;;;;4767324;55;21049;-29
2022/08/03 09:57:45;;;;;;;45.78;37.75;;;26.70;48.50;;;;;;4934712;55;21141;-29
2022/08/03 10:02:46;;;;;;;51.30;42.25;;;26.70;47.90;;;;;;4776148;55;21504;-30
2022/08/03 10:07:49;;;;;;;52.33;41.22;;;26.60;47.60;;;;;;4747736;55;21459;-28
2022/08/03 10:12:51;;;;;;;50.65;40.60;;;26.60;47.20;;;;;;4776627;55;21547;-28
2022/08/03 10:17:52;;;;;;;45.17;35.90;;;26.60;47.00;;;;;;4742641;55;21013;-29
2022/08/03 10:22:53;;;;;;;38.63;32.63;;;26.50;46.70;;;;;;4760450;55;21002;-28
2022/08/03 10:27:57;;;;;;;37.05;28.35;;;26.60;46.70;;;;;;5018632;55;21059;-31
2022/08/03 10:33:08;;;;;;;31.75;25.90;;;26.50;48.20;;;;;;4850412;55;22308;-29
2022/08/03 10:38:16;;;;;;;32.88;24.12;;;26.60;48.30;;;;;;4772426;57;21026;-29
2022/08/03 10:43:26;;;;;;;27.20;22.92;;;26.60;48.10;;;;;;4637363;57;21102;-33
2022/08/03 10:48:27;;;;;;;25.55;21.73;;;26.60;48.10;;;;;;4637333;57;21094;-30
2022/08/03 10:53:41;;;;;;;23.70;19.65;;;26.60;48.00;;;;;;4604652;57;21101;-28
2022/08/03 10:58:54;;;;;;;22.48;19.12;;;26.60;47.90;;;;;;4637367;57;21596;-28
2022/08/03 11:04:18;;;;;;;21.37;17.12;;;26.60;48.10;;;;;;4770636;57;21058;-29
2022/08/03 11:09:19;;;;;;;22.10;17.45;;;26.70;48.10;;;;;;4700078;57;21093;-30
2022/08/03 11:14:21;;;;;;;20.25;17.10;;;26.60;47.70;;;;;;4591776;57;21268;-29
2022/08/03 11:19:24;;;;;;;20.30;17.80;;;26.80;48.70;;;;;;4563904;61;21511;-29
2022/08/03 11:26:21;;;;;;;22.85;19.00;;;27.10;49.70;;;;;;4605076;57;22118;-29
2022/08/03 11:31:45;;;;;;;24.80;21.87;;;27.40;49.00;;;;;;4710790;57;21130;-28
2022/08/03 11:37:19;;;;;;;24.73;20.60;;;27.50;48.90;;;;;;4562626;57;21563;-30
2022/08/03 11:42:38;;;;;;;22.83;19.73;;;27.60;48.70;;;;;;4753656;57;21166;-31
2022/08/03 11:47:40;;;;;;;24.70;20.35;;;27.70;48.50;;;;;;4840314;57;21022;-28
2022/08/03 11:52:41;;;;;;;24.55;20.55;;;27.70;48.50;;;;;;4640641;57;21031;-30
2022/08/03 11:57:42;;;;;;;24.27;20.85;;;27.80;48.50;;;;;;4671518;57;21033;-29
2022/08/03 12:03:03;;;;;;;23.42;20.77;;;27.80;48.50;;;;;;4643031;57;21548;-29
2022/08/03 12:08:04;;;;;;;23.75;19.90;;;27.90;48.50;;;;;;4563869;58;21070;-30
2022/08/03 12:13:09;;;;;;;23.25;20.23;;;27.90;48.40;;;;;;4623920;57;21046;-30
2022/08/03 12:18:16;;;;;;;25.45;20.73;;;28.00;48.40;;;;;;4721655;57;21023;-29
2022/08/03 12:23:17;;;;;;;24.77;20.42;;;28.00;48.40;;;;;;4563965;61;21006;-28
2022/08/03 12:28:22;;;;;;;23.17;20.17;;;28.00;48.40;;;;;;4605547;57;21027;-30
2022/08/03 12:33:26;;;;;;;22.17;19.02;;;28.10;48.40;;;;;;4717022;57;21031;-30
2022/08/03 12:38:27;;;;;;;21.15;18.77;;;28.00;48.30;;;;;;4564044;57;21018;-30
2022/08/03 12:43:29;;;;;;;24.23;19.92;;;27.60;46.90;;;;;;4668999;57;21034;-25
2022/08/03 12:48:30;;;;;;;20.77;18.58;;;27.40;46.80;;;;;;4624840;57;21010;-24
2022/08/03 12:53:30;;;;;;;21.42;17.35;;;27.30;46.70;;;;;;4601479;57;21557;-30
2022/08/03 12:58:34;;;;;;;17.62;15.80;;;27.20;47.00;;;;;;4600790;57;21505;-30
2022/08/03 13:03:40;;;;;;;23.33;18.17;;;27.10;46.80;;;;;;4724154;57;21096;-30
2022/08/03 13:08:42;;;;;;;27.95;22.50;;;27.10;46.60;;;;;;4563961;58;21018;-27
2022/08/03 13:13:44;;;;;;;30.80;24.42;;;27.00;46.60;;;;;;4716098;57;21568;-27
2022/08/03 13:18:45;;;;;;;32.25;25.58;;;27.00;46.90;;;;;;4583437;57;21532;-29
2022/08/03 13:23:47;;;;;;;33.55;25.05;;;26.90;46.10;;;;;;4660175;57;21548;-27
2022/08/03 13:28:48;;;;;;;29.73;23.45;;;27.10;47.60;;;;;;4561849;61;21722;-30
2022/08/03 13:33:49;;;;;;;25.52;22.80;;;27.40;47.60;;;;;;4563044;61;21030;-30
2022/08/03 13:38:50;;;;;;;26.30;22.55;;;27.60;47.30;;;;;;4930762;57;21018;-30
2022/08/03 13:43:51;;;;;;;27.85;22.65;;;27.70;47.20;;;;;;4564155;61;22185;-27
2022/08/03 13:48:51;;;;;;;24.95;21.85;;;27.90;47.10;;;;;;4600062;57;21026;-23
2022/08/03 13:53:52;;;;;;;26.48;21.87;;;27.90;47.20;;;;;;4717814;57;21528;-27
2022/08/03 13:58:54;;;;;;;26.10;21.30;;;28.00;47.60;;;;;;4563803;61;21034;-30
2022/08/03 14:03:57;;;;;;;23.02;20.40;;;28.10;47.90;;;;;;4562284;61;21050;-30
2022/08/03 14:08:57;;;;;;;23.90;20.62;;;28.10;47.70;;;;;;4679449;57;21115;-31
2022/08/03 14:13:58;;;;;;;25.50;21.17;;;28.10;47.70;;;;;;4563302;61;21122;-31
2022/08/03 14:18:59;;;;;;;24.45;21.15;;;28.10;47.90;;;;;;4715642;57;21034;-32
2022/08/03 14:24:00;;;;;;;24.30;20.55;;;28.10;48.00;;;;;;4563710;61;21078;-31
2022/08/03 14:29:01;;;;;;;24.27;20.50;;;28.10;48.20;;;;;;4573793;57;21094;-31
2022/08/03 14:34:02;;;;;;;22.83;20.08;;;28.10;48.30;;;;;;4563436;58;21070;-30
2022/08/03 14:39:03;;;;;;;23.25;20.08;;;28.10;48.30;;;;;;4563766;61;21105;-31
2022/08/03 14:44:04;;;;;;;24.75;19.40;;;28.10;48.40;;;;;;4611940;57;21509;-31
2022/08/03 14:49:04;;;;;;;20.85;18.62;;;28.10;48.40;;;;;;4743396;57;21010;-31
2022/08/03 14:54:05;;;;;;;22.95;19.98;;;28.10;48.50;;;;;;4802748;57;21086;-32
2022/08/03 14:59:06;;;;;;;21.65;19.35;;;28.10;48.60;;;;;;4613066;57;21496;-31
2022/08/03 15:04:07;;;;;;;20.88;18.67;;;28.10;48.70;;;;;;4591186;57;21082;-33
2022/08/03 15:09:08;;;;;;;21.58;19.27;;;28.10;48.70;;;;;;4601772;57;21033;-33
2022/08/03 15:14:09;;;;;;;20.83;18.62;;;28.10;48.70;;;;;;4708087;57;21066;-32
2022/08/03 15:19:10;;;;;;;22.35;19.95;;;28.20;48.90;;;;;;4563860;61;21038;-30
2022/08/03 15:24:11;;;;;;;21.52;19.23;;;28.10;48.90;;;;;;4564277;58;21469;-32
2022/08/03 15:29:12;;;;;;;20.42;17.92;;;28.20;49.50;;;;;;4582818;57;21081;-31
2022/08/03 15:34:13;;;;;;;20.65;18.45;;;28.20;49.00;;;;;;4563631;61;21548;-31
2022/08/03 15:39:14;;;;;;;20.73;18.48;;;28.20;49.00;;;;;;4663555;57;21105;-31
2022/08/03 15:44:18;;;;;;;21.23;18.12;;;28.20;49.00;;;;;;4848881;57;21026;-31
2022/08/03 15:49:19;;;;;;;19.60;17.60;;;28.20;49.00;;;;;;4722674;57;21026;-32
2022/08/03 15:54:20;;;;;;;20.85;18.65;;;28.10;49.00;;;;;;4688862;57;21042;-33
2022/08/03 15:59:21;;;;;;;20.05;17.98;;;28.20;49.10;;;;;;4563941;61;21500;-33
2022/08/03 16:04:22;;;;;;;20.05;17.98;;;28.20;49.10;;;;;;4564016;61;21038;-33
2022/08/03 16:09:23;;;;;;;19.75;17.75;;;28.20;49.10;;;;;;4582696;57;21041;-32
2022/08/03 16:14:23;;;;;;;19.92;17.90;;;28.20;49.10;;;;;;4562917;61;21122;-30
2022/08/03 16:19:24;;;;;;;19.70;17.60;;;28.20;49.10;;;;;;4742889;57;21153;-30
2022/08/03 16:24:25;;;;;;;19.30;17.08;;;28.20;49.20;;;;;;4637643;57;21038;-30
2022/08/03 16:29:26;;;;;;;19.87;17.77;;;28.20;49.10;;;;;;4577769;57;21592;-33
2022/08/03 16:34:26;;;;;;;19.62;17.65;;;28.20;49.70;;;;;;4711329;57;21042;-33
2022/08/03 16:39:27;;;;;;;18.15;16.40;;;28.20;49.20;;;;;;4591556;57;21026;-27
2022/08/03 16:44:29;;;;;;;18.15;16.23;;;28.20;49.20;;;;;;4591306;57;21407;-32
2022/08/03 16:49:30;;;;;;;19.02;17.12;;;28.20;49.20;;;;;;4708109;57;21101;-30
2022/08/03 16:54:31;;;;;;;19.58;16.92;;;28.20;49.20;;;;;;4809434;57;21516;-31
2022/08/03 16:59:32;;;;;;;18.73;16.83;;;28.20;49.30;;;;;;4702885;57;21038;-30
2022/08/03 17:04:33;;;;;;;18.80;16.90;;;28.20;49.30;;;;;;4717306;57;21025;-32
2022/08/03 17:09:35;;;;;;;18.35;16.45;;;28.20;49.30;;;;;;4820428;57;21065;-32
2022/08/03 17:14:36;;;;;;;17.23;15.52;;;28.20;49.30;;;;;;4732742;57;21095;-31
2022/08/03 17:19:40;;;;;;;16.73;15.05;;;28.20;49.30;;;;;;4568374;57;21034;-31
2022/08/03 17:24:48;;;;;;;18.77;16.77;;;28.20;49.30;;;;;;4871370;57;21167;-31
2022/08/03 17:29:55;;;;;;;18.90;17.00;;;28.20;49.30;;;;;;4594632;57;21086;-32
2022/08/03 17:34:56;;;;;;;17.90;16.10;;;28.30;49.40;;;;;;4817436;57;21125;-29
2022/08/03 17:39:57;;;;;;;17.33;15.55;;;28.30;49.40;;;;;;4652348;57;21150;-31
2022/08/03 17:45:00;;;;;;;17.23;15.52;;;28.30;49.40;;;;;;4969564;57;21098;-30
2022/08/03 17:50:01;;;;;;;17.08;15.38;;;28.20;49.40;;;;;;4752994;57;21034;-30
2022/08/03 17:55:16;;;;;;;17.33;15.63;;;28.20;49.40;;;;;;4807390;57;21191;-31
2022/08/03 18:05:38;;;;;;;17.65;15.85;;;28.30;49.50;;;;;;4731188;57;21140;-31
2022/08/03 18:10:39;;;;;;;18.23;16.35;;;28.30;49.50;;;;;;4614625;57;21091;-31
2022/08/03 18:15:51;;;;;;;17.98;16.08;;;28.20;49.50;;;;;;4621876;57;21604;-29
2022/08/03 18:20:53;;;;;;;16.70;15.05;;;28.20;49.50;;;;;;4693826;57;21091;-34
2022/08/03 18:25:55;;;;;;;17.02;15.27;;;28.30;49.50;;;;;;4656624;57;21519;-32
2022/08/03 18:30:56;;;;;;;16.83;15.13;;;28.30;49.50;;;;;;4787954;57;21066;-32
2022/08/03 18:35:59;;;;;;;17.27;15.57;;;28.20;49.50;;;;;;4695864;57;21090;-34
2022/08/03 18:41:00;;;;;;;17.58;15.75;;;28.30;49.60;;;;;;4564032;61;21465;-31
2022/08/03 18:46:04;;;;;;;16.80;15.10;;;28.30;49.70;;;;;;4563846;61;21556;-30
2022/08/03 18:51:12;;;;;;;16.87;15.18;;;28.30;49.70;;;;;;4735347;57;21018;-29
2022/08/03 18:56:30;;;;;;;16.85;15.15;;;28.30;49.70;;;;;;4564028;61;21066;-31
2022/08/03 19:01:47;;;;;;;16.65;14.95;;;28.30;49.70;;;;;;4572526;57;21089;-31
2022/08/03 19:06:48;;;;;;;16.50;14.80;;;28.30;49.70;;;;;;4564184;58;21077;-31
2022/08/03 19:11:55;;;;;;;17.42;15.73;;;28.30;49.70;;;;;;4842385;57;21074;-30
2022/08/03 19:17:08;;;;;;;16.92;15.23;;;28.30;49.70;;;;;;4652776;57;21097;-30
2022/08/03 19:22:10;;;;;;;17.67;15.85;;;28.30;49.80;;;;;;4564215;61;21031;-29
2022/08/03 19:27:12;;;;;;;17.05;15.40;;;28.30;49.80;;;;;;4721726;57;21086;-34
2022/08/03 19:32:17;;;;;;;16.55;14.95;;;28.30;49.80;;;;;;4657907;57;21018;-31
2022/08/03 19:37:19;;;;;;;16.12;14.50;;;28.30;49.80;;;;;;4635046;57;21496;-30
2022/08/03 19:42:28;;;;;;;17.75;15.75;;;28.30;49.80;;;;;;4563771;57;21030;-31
2022/08/03 19:47:43;;;;;;;16.60;14.77;;;28.30;49.80;;;;;;4693209;57;21596;-31
2022/08/03 19:52:47;;;;;;;17.23;14.43;;;28.30;49.80;;;;;;4563305;61;21042;-32
2022/08/03 19:57:52;;;;;;;15.88;14.25;;;28.30;49.80;;;;;;4748708;57;21030;-29
2022/08/03 20:02:53;;;;;;;16.05;14.45;;;28.30;49.80;;;;;;4677858;57;21087;-31
2022/08/03 20:07:57;;;;;;;16.70;15.00;;;28.30;49.90;;;;;;4563699;61;21613;-30
2022/08/03 20:12:59;;;;;;;16.08;14.43;;;28.30;49.90;;;;;;4625438;57;21190;-30
2022/08/03 20:18:00;;;;;;;16.23;14.68;;;28.30;49.90;;;;;;4690480;57;21073;-31
2022/08/03 20:23:06;;;;;;;16.40;14.05;;;28.30;49.90;;;;;;4578914;57;21060;-33
2022/08/03 20:28:11;;;;;;;16.25;14.30;;;28.30;49.90;;;;;;4636670;57;21090;-30
2022/08/03 20:33:14;;;;;;;16.30;14.70;;;28.30;50.00;;;;;;4883397;57;21034;-32
2022/08/03 20:38:17;;;;;;;16.08;14.38;;;28.30;50.00;;;;;;4594050;57;21010;-31
2022/08/03 20:43:18;;;;;;;15.55;13.95;;;28.30;50.00;;;;;;4821804;57;21037;-31
2022/08/03 20:48:19;;;;;;;16.15;14.50;;;28.30;50.10;;;;;;4706506;57;21039;-31
2022/08/03 20:53:20;;;;;;;15.23;13.75;;;28.30;50.00;;;;;;4645849;57;21517;-33
2022/08/03 20:58:21;;;;;;;15.75;13.65;;;28.30;50.00;;;;;;4619154;57;21086;-33
2022/08/03 21:03:22;;;;;;;15.10;13.50;;;28.30;50.10;;;;;;4733534;57;21061;-35
2022/08/03 21:08:25;;;;;;;15.35;13.75;;;28.30;50.10;;;;;;4654425;57;21021;-34
2022/08/03 21:13:41;;;;;;;15.40;13.30;;;28.30;50.10;;;;;;4564040;61;21695;-29
2022/08/03 21:18:49;;;;;;;14.25;12.88;;;28.30;50.10;;;;;;4593300;57;21010;-30
2022/08/03 21:23:54;;;;;;;15.18;13.65;;;28.30;50.20;;;;;;5011496;57;21070;-30
2022/08/03 21:28:55;;;;;;;14.63;13.23;;;28.30;50.20;;;;;;4668448;57;21022;-30
2022/08/03 21:34:00;;;;;;;15.00;13.43;;;28.30;50.20;;;;;;4563697;61;21111;-32
2022/08/03 21:39:05;;;;;;;14.87;13.38;;;28.30;50.20;;;;;;4585567;57;21089;-31
2022/08/03 21:44:07;;;;;;;14.18;12.68;;;28.30;50.20;;;;;;4783990;57;21577;-32
2022/08/03 21:49:11;;;;;;;14.18;12.75;;;28.30;50.20;;;;;;4680888;57;21081;-34
2022/08/03 21:54:13;;;;;;;14.43;12.73;;;28.30;50.30;;;;;;4563947;61;21110;-30
2022/08/03 21:59:18;;;;;;;14.13;12.80;;;28.30;50.30;;;;;;4716398;57;21027;-31
2022/08/03 22:04:20;;;;;;;13.88;12.48;;;28.30;50.40;;;;;;4564691;61;21015;-31
2022/08/03 22:09:21;;;;;;;13.88;12.45;;;28.30;50.40;;;;;;4592472;57;21034;-31
2022/08/03 22:14:22;;;;;;;13.90;12.57;;;28.20;50.30;;;;;;4912727;57;21146;-30
2022/08/03 22:19:23;;;;;;;12.90;11.60;;;28.30;50.60;;;;;;4656932;57;21019;-32
2022/08/03 22:24:28;;;;;;;13.20;11.88;;;28.30;50.60;;;;;;4583382;57;21038;-33
2022/08/03 22:29:33;;;;;;;12.60;11.30;;;28.30;50.50;;;;;;4648633;57;21022;-32
2022/08/03 22:34:35;;;;;;;12.30;11.10;;;28.30;50.50;;;;;;4606398;57;21596;-32
2022/08/03 22:39:38;;;;;;;13.77;12.37;;;28.30;50.60;;;;;;4608535;57;21078;-36
2022/08/03 22:44:39;;;;;;;13.45;12.10;;;28.30;50.60;;;;;;4596601;57;21473;-30
2022/08/03 22:49:42;;;;;;;12.68;11.48;;;28.20;50.60;;;;;;4631883;57;21030;-31
2022/08/03 22:54:45;;;;;;;12.95;11.65;;;28.20;50.80;;;;;;4657576;57;21047;-33
2022/08/03 22:59:46;;;;;;;13.05;11.75;;;28.30;50.70;;;;;;4622052;57;21531;-30
2022/08/03 23:04:53;;;;;;;13.15;11.70;;;28.20;50.70;;;;;;4725952;57;21030;-33
2022/08/03 23:09:56;;;;;;;12.88;11.52;;;28.30;50.80;;;;;;4685400;57;21074;-34
2022/08/03 23:15:02;;;;;;;12.85;11.18;;;28.20;50.60;;;;;;4563666;61;21548;-36
2022/08/03 23:20:06;;;;;;;12.07;10.98;;;28.20;50.90;;;;;;4630887;57;21078;-33
2022/08/03 23:25:08;;;;;;;11.80;10.70;;;28.20;51.10;;;;;;4744517;57;21500;-31
2022/08/03 23:30:10;;;;;;;12.50;11.20;;;28.20;50.90;;;;;;4700294;57;21011;-32
2022/08/03 23:40:32;;;;;;;11.75;10.55;;;28.20;51.00;;;;;;4563861;61;21109;-31
2022/08/03 23:45:35;;;;;;;12.37;11.10;;;28.20;50.90;;;;;;4658942;57;21169;-32
2022/08/03 23:50:46;;;;;;;12.00;10.80;;;28.20;50.90;;;;;;5011127;57;21070;-30
2022/08/03 23:57:54;;;;;;;12.20;11.00;;;28.20;50.90;;;;;;4563549;61;21039;-29
